Time;durP1;ratioP1;P1;durP2;ratioP2;P2;SDS_P1;SDS_P2;PMS_P1;PMS_P2;Temp;Humidity;BMP_temperature;BMP_pressure;BME280_temperature;BME280_humidity;BME280_pressure;Samples;Min_cycle;Max_cycle;Signal;HPM_P1;HPM_P2
2021/05/23 00:00:18;;;;;;;5.22;2.35;;;13.60;99.90;;;;;;5060941;28;20094;-60
2021/05/23 00:02:45;;;;;;;5.47;2.30;;;13.60;99.90;;;;;;5074751;28;20041;-60
2021/05/23 00:05:17;;;;;;;6.25;2.95;;;13.60;99.90;;;;;;5065574;28;20041;-60
2021/05/23 00:07:59;;;;;;;5.45;2.90;;;13.60;99.90;;;;;;5070469;28;20539;-60
2021/05/23 00:10:27;;;;;;;5.13;2.27;;;13.60;99.90;;;;;;5074945;28;20416;-60
2021/05/23 00:12:56;;;;;;;4.10;2.13;;;13.60;99.90;;;;;;5073416;28;20053;-60
2021/05/23 00:15:28;;;;;;;5.88;1.80;;;13.60;99.90;;;;;;5074389;28;20441;-60
2021/05/23 00:17:55;;;;;;;3.95;1.50;;;13.60;99.90;;;;;;5075651;28;20542;-60
2021/05/23 00:20:24;;;;;;;3.53;1.80;;;13.60;99.90;;;;;;5072269;28;20044;-60
2021/05/23 00:22:51;;;;;;;3.33;1.77;;;13.60;99.90;;;;;;5070891;28;20551;-60
2021/05/23 00:25:20;;;;;;;3.60;1.60;;;13.50;99.90;;;;;;5072452;28;20040;-60
2021/05/23 00:27:47;;;;;;;5.10;1.92;;;13.60;99.90;;;;;;5075183;28;20515;-60
2021/05/23 00:30:16;;;;;;;4.00;1.48;;;13.60;99.90;;;;;;5072220;28;20150;-60
2021/05/23 00:32:44;;;;;;;5.57;1.65;;;13.60;99.90;;;;;;5069642;28;20036;-59
2021/05/23 00:35:11;;;;;;;4.85;2.33;;;13.60;99.90;;;;;;5072265;28;20036;-59
2021/05/23 00:37:38;;;;;;;6.85;2.13;;;13.60;99.90;;;;;;5070442;28;20041;-59
2021/05/23 00:40:07;;;;;;;5.10;1.90;;;13.60;99.90;;;;;;5071328;28;20045;-59
2021/05/23 00:42:34;;;;;;;5.25;2.58;;;13.50;99.90;;;;;;5072736;28;20258;-59
2021/05/23 00:45:03;;;;;;;6.03;2.60;;;13.50;99.90;;;;;;5070629;28;20044;-59
2021/05/23 00:47:31;;;;;;;6.78;3.15;;;13.60;99.90;;;;;;5072442;28;20398;-59
2021/05/23 00:49:58;;;;;;;7.30;2.90;;;13.60;99.90;;;;;;5070773;28;20029;-59
2021/05/23 00:52:25;;;;;;;9.23;3.65;;;13.60;99.90;;;;;;5073792;28;20051;-61
2021/05/23 00:54:53;;;;;;;8.02;3.85;;;13.60;99.90;;;;;;5073130;28;20098;-61
2021/05/23 00:57:20;;;;;;;11.20;4.38;;;13.60;99.90;;;;;;5064131;28;20049;-60
2021/05/23 00:59:49;;;;;;;9.55;4.35;;;13.60;99.90;;;;;;5054581;28;20056;-60
2021/05/23 01:02:42;;;;;;;8.68;4.07;;;13.50;99.90;;;;;;5069088;28;20047;-60
2021/05/23 01:05:13;;;;;;;9.80;4.30;;;13.50;99.90;;;;;;5071521;28;20380;-60
2021/05/23 01:07:41;;;;;;;11.77;5.20;;;13.60;99.90;;;;;;5073268;28;20045;-60
2021/05/23 01:10:15;;;;;;;10.40;5.18;;;13.50;99.90;;;;;;5053930;28;20036;-60
2021/05/23 01:13:02;;;;;;;10.57;5.07;;;13.60;99.90;;;;;;5071200;28;20040;-60
2021/05/23 01:15:33;;;;;;;10.85;5.38;;;13.60;99.90;;;;;;5072067;28;20452;-60
2021/05/23 01:18:04;;;;;;;12.00;5.05;;;13.60;99.90;;;;;;5071710;28;20056;-60
2021/05/23 01:20:55;;;;;;;10.38;5.30;;;13.60;99.90;;;;;;5064744;28;20040;-60
2021/05/23 01:23:31;;;;;;;10.27;4.80;;;13.60;99.90;;;;;;5070640;28;20044;-60
2021/05/23 01:26:07;;;;;;;10.73;5.18;;;13.50;99.90;;;;;;5060482;28;20055;-59
2021/05/23 01:29:05;;;;;;;8.35;4.60;;;13.50;99.90;;;;;;5080234;28;20036;-59
2021/05/23 01:31:33;;;;;;;10.15;5.13;;;13.50;99.90;;;;;;5050504;28;20059;-59
2021/05/23 01:34:01;;;;;;;12.85;5.60;;;13.50;99.90;;;;;;5087418;28;20736;-59
2021/05/23 01:36:31;;;;;;;10.10;5.57;;;13.60;99.90;;;;;;5068383;28;20037;-59
2021/05/23 01:39:00;;;;;;;11.50;5.57;;;13.60;99.90;;;;;;5055612;28;20128;-60
2021/05/23 01:41:29;;;;;;;11.18;5.63;;;13.60;99.90;;;;;;5072940;28;20057;-60
2021/05/23 01:43:58;;;;;;;9.88;5.43;;;13.60;99.90;;;;;;5066893;28;20427;-60
2021/05/23 01:46:27;;;;;;;9.13;5.10;;;13.50;99.90;;;;;;5057598;28;20041;-60
2021/05/23 01:48:54;;;;;;;12.98;5.78;;;13.40;99.90;;;;;;5071217;28;20036;-60
2021/05/23 01:51:22;;;;;;;12.32;5.72;;;13.40;99.90;;;;;;5071335;28;20040;-59
2021/05/23 01:53:50;;;;;;;11.18;5.63;;;13.40;99.90;;;;;;5067871;28;20048;-59
2021/05/23 01:56:18;;;;;;;11.40;5.25;;;13.40;99.90;;;;;;5070675;28;20036;-59
2021/05/23 01:58:45;;;;;;;11.07;5.88;;;13.40;99.90;;;;;;5068178;28;20484;-59
2021/05/23 02:01:12;;;;;;;10.02;5.40;;;13.40;99.90;;;;;;5070516;28;20047;-59
2021/05/23 02:03:39;;;;;;;12.43;5.18;;;13.40;99.90;;;;;;5071817;28;20365;-60
2021/05/23 02:06:06;;;;;;;11.23;5.63;;;13.40;99.90;;;;;;5070536;28;20044;-60
2021/05/23 02:08:34;;;;;;;9.77;5.40;;;13.50;99.90;;;;;;5071795;28;20036;-60
2021/05/23 02:11:07;;;;;;;12.55;5.53;;;13.50;99.90;;;;;;5070384;28;20097;-60
2021/05/23 02:13:38;;;;;;;10.65;5.38;;;13.50;99.90;;;;;;5070483;28;20033;-60
2021/05/23 02:16:07;;;;;;;12.05;6.13;;;13.50;99.90;;;;;;5071054;28;20741;-60
2021/05/23 02:18:35;;;;;;;9.95;5.28;;;13.50;99.90;;;;;;5074088;28;20036;-60
2021/05/23 02:21:04;;;;;;;8.90;4.22;;;13.50;99.90;;;;;;5070306;28;20055;-60
2021/05/23 02:23:31;;;;;;;9.57;4.97;;;13.60;99.90;;;;;;5070156;28;20400;-60
2021/05/23 02:25:58;;;;;;;8.52;4.80;;;13.60;99.90;;;;;;5069394;28;20048;-60
2021/05/23 02:28:25;;;;;;;10.35;4.47;;;13.60;99.90;;;;;;5067634;28;20060;-60
2021/05/23 02:30:56;;;;;;;8.10;4.63;;;13.60;99.90;;;;;;5070745;28;20040;-59
2021/05/23 02:33:27;;;;;;;8.23;4.28;;;13.50;99.90;;;;;;5072728;28;20124;-59
2021/05/23 02:35:57;;;;;;;13.70;4.70;;;13.50;99.90;;;;;;5072475;28;20138;-59
2021/05/23 02:38:25;;;;;;;8.27;4.53;;;13.50;99.90;;;;;;5071297;28;20075;-59
2021/05/23 02:40:53;;;;;;;9.52;5.20;;;13.50;99.90;;;;;;5071950;28;20071;-59
2021/05/23 02:43:22;;;;;;;9.32;4.60;;;13.50;99.90;;;;;;5068308;28;20391;-59
2021/05/23 02:45:49;;;;;;;12.32;5.07;;;13.60;99.90;;;;;;5070457;28;20036;-59
2021/05/23 02:48:18;;;;;;;9.85;4.20;;;13.60;99.90;;;;;;5072318;28;20379;-59
2021/05/23 02:50:51;;;;;;;9.73;4.18;;;13.50;99.90;;;;;;5069381;28;20041;-59
2021/05/23 02:53:18;;;;;;;11.95;4.20;;;13.50;99.90;;;;;;5069855;28;20102;-59
2021/05/23 02:55:47;;;;;;;9.43;4.07;;;13.50;99.90;;;;;;5071275;28;20490;-60
2021/05/23 02:58:16;;;;;;;5.57;3.50;;;13.50;99.90;;;;;;5064769;28;20062;-59
2021/05/23 03:00:44;;;;;;;7.28;3.88;;;13.50;99.90;;;;;;5071010;28;20047;-59
2021/05/23 03:03:12;;;;;;;7.20;3.60;;;13.50;99.90;;;;;;5067869;28;20037;-60
2021/05/23 03:05:40;;;;;;;6.72;3.55;;;13.50;99.90;;;;;;5071805;28;20718;-60
2021/05/23 03:08:08;;;;;;;7.97;2.92;;;13.50;99.90;;;;;;5063466;28;20143;-60
2021/05/23 03:10:39;;;;;;;5.93;3.33;;;13.50;99.90;;;;;;5068957;28;20041;-60
2021/05/23 03:13:08;;;;;;;7.70;3.22;;;13.50;99.90;;;;;;5069387;28;20052;-60
2021/05/23 03:15:36;;;;;;;7.70;3.42;;;13.50;99.90;;;;;;5071371;28;20079;-60
2021/05/23 03:18:04;;;;;;;6.60;2.97;;;13.50;99.90;;;;;;5070118;28;20055;-61
2021/05/23 03:20:32;;;;;;;5.80;2.83;;;13.50;99.90;;;;;;5070081;28;20101;-60
2021/05/23 03:23:00;;;;;;;6.82;3.25;;;13.50;99.90;;;;;;5069018;28;20040;-60
2021/05/23 03:25:28;;;;;;;6.15;3.30;;;13.50;99.90;;;;;;5065193;28;20047;-60
2021/05/23 03:27:57;;;;;;;4.18;2.75;;;13.60;99.90;;;;;;5064170;28;20045;-60
2021/05/23 03:30:30;;;;;;;4.93;2.42;;;13.50;99.90;;;;;;5069865;28;20039;-60
2021/05/23 03:32:57;;;;;;;7.55;3.10;;;13.50;99.90;;;;;;5069367;28;20059;-60
2021/05/23 03:35:24;;;;;;;6.15;2.83;;;13.40;99.90;;;;;;5067939;28;20033;-60
2021/05/23 03:37:51;;;;;;;5.68;2.60;;;13.40;99.90;;;;;;5071807;28;20037;-59
2021/05/23 03:40:19;;;;;;;6.68;2.42;;;13.40;99.90;;;;;;5070283;28;20514;-59
2021/05/23 03:42:48;;;;;;;5.93;2.53;;;13.40;99.90;;;;;;5071516;28;20032;-61
2021/05/23 03:45:18;;;;;;;7.47;3.33;;;13.40;99.90;;;;;;5071806;28;20163;-61
2021/05/23 03:47:45;;;;;;;4.30;2.40;;;13.40;99.90;;;;;;5071583;28;20048;-61
2021/05/23 03:50:17;;;;;;;8.82;2.75;;;13.50;99.90;;;;;;5070990;28;20094;-61
2021/05/23 03:52:45;;;;;;;6.78;2.78;;;13.50;99.90;;;;;;5068921;28;20036;-61
2021/05/23 03:55:13;;;;;;;6.35;3.58;;;13.50;99.90;;;;;;5058993;28;20075;-61
2021/05/23 03:57:40;;;;;;;7.60;2.28;;;13.60;99.90;;;;;;5067670;28;20545;-61
2021/05/23 04:00:10;;;;;;;7.75;2.60;;;13.60;99.90;;;;;;5070946;28;20044;-61
2021/05/23 04:02:45;;;;;;;8.18;2.45;;;13.60;99.90;;;;;;5071398;28;20407;-62
2021/05/23 04:05:12;;;;;;;7.75;2.50;;;13.50;99.90;;;;;;5070281;28;20060;-61
2021/05/23 04:07:39;;;;;;;5.65;2.38;;;13.50;99.90;;;;;;5066975;28;20041;-61
2021/05/23 04:10:08;;;;;;;5.38;2.33;;;13.50;99.90;;;;;;5065296;28;20402;-62
2021/05/23 04:12:40;;;;;;;6.05;2.53;;;13.50;99.90;;;;;;5068756;28;20033;-62
2021/05/23 04:15:08;;;;;;;6.07;2.72;;;13.50;99.90;;;;;;5053770;28;20044;-61
2021/05/23 04:17:36;;;;;;;5.13;2.33;;;13.50;99.90;;;;;;5067488;28;20139;-61
2021/05/23 04:20:06;;;;;;;6.60;3.13;;;13.50;99.90;;;;;;5068081;28;20503;-61
2021/05/23 04:22:34;;;;;;;5.07;2.83;;;13.50;99.90;;;;;;5065488;28;20131;-61
2021/05/23 04:25:09;;;;;;;5.35;2.72;;;13.60;99.90;;;;;;5066774;28;20031;-61
2021/05/23 04:27:37;;;;;;;7.80;3.05;;;13.50;99.90;;;;;;5066726;28;20067;-62
2021/05/23 04:30:06;;;;;;;7.15;2.70;;;13.50;99.90;;;;;;5060756;28;20044;-62
2021/05/23 04:32:33;;;;;;;6.05;3.20;;;13.40;99.90;;;;;;5067493;28;20045;-62
2021/05/23 04:35:01;;;;;;;7.28;3.80;;;13.40;99.90;;;;;;5067957;28;20051;-61
2021/05/23 04:37:28;;;;;;;9.43;4.15;;;13.40;99.90;;;;;;5066782;28;20147;-61
2021/05/23 04:39:56;;;;;;;10.30;4.38;;;13.40;99.90;;;;;;5068273;28;20052;-61
2021/05/23 04:42:23;;;;;;;8.85;4.13;;;13.40;99.90;;;;;;5068062;28;20048;-61
2021/05/23 04:45:11;;;;;;;6.05;2.67;;;13.40;99.90;;;;;;5066935;28;20033;-61
2021/05/23 04:47:38;;;;;;;5.63;2.75;;;13.40;99.90;;;;;;5066010;28;20043;-61
2021/05/23 04:50:06;;;;;;;7.15;3.22;;;13.40;99.90;;;;;;5074280;28;20394;-61
2021/05/23 04:52:34;;;;;;;5.57;2.78;;;13.30;99.90;;;;;;5069622;28;20479;-61
2021/05/23 04:55:03;;;;;;;5.35;2.88;;;13.40;99.90;;;;;;5070625;28;20055;-61
2021/05/23 04:57:31;;;;;;;8.32;2.97;;;13.40;99.90;;;;;;5073384;28;20075;-61
2021/05/23 04:59:59;;;;;;;3.97;2.03;;;13.50;99.90;;;;;;5069409;28;20049;-61
2021/05/23 05:02:27;;;;;;;5.35;2.65;;;13.50;99.90;;;;;;5070153;28;20507;-61
2021/05/23 05:04:54;;;;;;;4.57;2.35;;;13.50;99.90;;;;;;5070589;28;20044;-61
2021/05/23 05:07:21;;;;;;;6.47;3.08;;;13.50;99.90;;;;;;5067456;28;20051;-61
2021/05/23 05:09:48;;;;;;;8.02;3.10;;;13.60;99.90;;;;;;5067796;28;20063;-61
2021/05/23 05:12:15;;;;;;;5.03;2.85;;;13.60;99.90;;;;;;5064434;28;20053;-61
2021/05/23 05:14:42;;;;;;;6.38;3.10;;;13.50;99.90;;;;;;5070521;28;20097;-61
2021/05/23 05:17:09;;;;;;;7.40;3.47;;;13.50;99.90;;;;;;5073313;28;20056;-61
2021/05/23 05:19:37;;;;;;;7.60;3.67;;;13.50;99.90;;;;;;5068683;28;20531;-62
2021/05/23 05:22:04;;;;;;;9.55;4.30;;;13.50;99.90;;;;;;5066312;28;20053;-62
2021/05/23 05:24:31;;;;;;;6.43;3.58;;;13.50;99.90;;;;;;5066490;28;20048;-62
2021/05/23 05:26:58;;;;;;;7.82;3.78;;;13.50;99.90;;;;;;5070097;28;20040;-62
2021/05/23 05:29:26;;;;;;;9.27;3.92;;;13.50;99.90;;;;;;5070876;28;20055;-61
2021/05/23 05:31:53;;;;;;;4.25;2.58;;;13.60;99.90;;;;;;5069623;28;20044;-61
2021/05/23 05:34:20;;;;;;;8.32;3.72;;;13.70;99.90;;;;;;5070609;28;20507;-61
2021/05/23 05:36:47;;;;;;;4.97;2.95;;;13.70;99.90;;;;;;5066196;28;20045;-61
2021/05/23 05:39:14;;;;;;;7.35;3.08;;;13.70;99.90;;;;;;5067264;28;20094;-62
2021/05/23 05:41:41;;;;;;;6.00;3.15;;;13.70;99.90;;;;;;5070807;28;20049;-62
2021/05/23 05:44:08;;;;;;;8.38;3.40;;;13.80;99.90;;;;;;5067484;28;20048;-62
2021/05/23 05:46:35;;;;;;;5.57;3.03;;;13.80;99.90;;;;;;5071248;28;20102;-62
2021/05/23 05:49:03;;;;;;;5.78;3.10;;;13.80;99.90;;;;;;5068287;28;20806;-61
2021/05/23 05:51:30;;;;;;;7.97;3.58;;;13.80;99.90;;;;;;5063469;28;20550;-61
2021/05/23 05:53:57;;;;;;;7.60;3.75;;;13.80;99.90;;;;;;5065987;28;20099;-61
2021/05/23 05:56:24;;;;;;;8.55;3.40;;;13.80;99.90;;;;;;5069028;28;20048;-61
2021/05/23 05:58:51;;;;;;;7.10;3.95;;;13.90;99.90;;;;;;5078278;28;20691;-62
2021/05/23 06:01:18;;;;;;;7.38;4.07;;;13.90;99.90;;;;;;5066760;28;20055;-62
2021/05/23 06:03:45;;;;;;;6.28;3.42;;;13.90;99.90;;;;;;5066745;28;20051;-62
2021/05/23 06:06:12;;;;;;;8.82;4.35;;;13.90;99.90;;;;;;5066906;28;20037;-62
2021/05/23 06:08:39;;;;;;;10.40;4.38;;;14.00;99.90;;;;;;5065888;28;20036;-62
2021/05/23 06:11:06;;;;;;;9.40;4.30;;;14.00;99.90;;;;;;5062815;28;20354;-62
2021/05/23 06:13:33;;;;;;;8.02;4.95;;;13.90;99.90;;;;;;5068060;28;20090;-62
2021/05/23 06:16:00;;;;;;;8.90;3.85;;;14.00;99.90;;;;;;5067333;28;20086;-62
2021/05/23 06:18:28;;;;;;;9.27;4.22;;;14.00;99.90;;;;;;5064800;28;20171;-62
2021/05/23 06:20:55;;;;;;;10.27;5.20;;;14.00;99.90;;;;;;5064947;28;20127;-62
2021/05/23 06:23:23;;;;;;;7.13;3.90;;;14.00;99.90;;;;;;5068535;28;20568;-62
2021/05/23 06:25:51;;;;;;;11.85;4.40;;;14.00;99.90;;;;;;5066467;28;20900;-62
2021/05/23 06:28:18;;;;;;;11.18;4.25;;;14.00;99.90;;;;;;5066262;28;20037;-61
2021/05/23 06:30:45;;;;;;;10.38;4.40;;;13.90;99.90;;;;;;5066312;28;20537;-61
2021/05/23 06:33:13;;;;;;;7.10;3.38;;;13.90;99.90;;;;;;5069492;28;20040;-62
2021/05/23 06:35:40;;;;;;;8.63;4.50;;;13.90;99.90;;;;;;5068489;28;20117;-62
2021/05/23 06:38:07;;;;;;;8.60;3.97;;;14.00;99.90;;;;;;5069277;28;20051;-61
2021/05/23 06:40:34;;;;;;;9.98;4.13;;;14.00;99.90;;;;;;5069453;28;20055;-62
2021/05/23 06:43:01;;;;;;;6.40;3.75;;;14.00;99.90;;;;;;5069425;28;20048;-61
2021/05/23 06:45:29;;;;;;;15.57;6.05;;;14.00;99.90;;;;;;5067702;28;20127;-61
2021/05/23 06:47:56;;;;;;;14.80;6.25;;;14.10;99.90;;;;;;5067560;28;20041;-61
2021/05/23 06:50:23;;;;;;;11.13;4.95;;;14.10;99.90;;;;;;5067866;28;20123;-61
2021/05/23 06:52:50;;;;;;;9.85;4.60;;;14.10;99.90;;;;;;5062848;28;20037;-61
2021/05/23 06:55:17;;;;;;;11.35;5.03;;;14.10;99.90;;;;;;5051982;28;20407;-61
2021/05/23 06:57:44;;;;;;;12.52;4.60;;;14.20;99.90;;;;;;5057338;28;20070;-61
2021/05/23 07:00:19;;;;;;;9.25;4.07;;;14.20;99.90;;;;;;5043453;28;20081;-61
2021/05/23 07:02:46;;;;;;;6.72;3.30;;;14.20;99.90;;;;;;5067677;28;20125;-61
2021/05/23 07:05:14;;;;;;;9.55;4.18;;;14.20;99.90;;;;;;5066232;28;20044;-61
2021/05/23 07:07:41;;;;;;;11.00;4.70;;;14.20;99.90;;;;;;5066845;28;20029;-62
2021/05/23 07:10:09;;;;;;;9.90;4.68;;;14.30;99.90;;;;;;5066389;28;20033;-62
2021/05/23 07:12:36;;;;;;;8.98;3.90;;;14.20;99.90;;;;;;5067617;28;20163;-62
2021/05/23 07:15:05;;;;;;;8.40;3.65;;;14.20;99.90;;;;;;5047946;28;20098;-61
2021/05/23 07:17:32;;;;;;;8.02;4.25;;;14.20;99.90;;;;;;5059789;28;20142;-61
2021/05/23 07:20:00;;;;;;;8.77;4.05;;;14.10;99.90;;;;;;5064931;28;20090;-62
2021/05/23 07:22:27;;;;;;;10.07;4.95;;;14.00;99.90;;;;;;5066764;28;20391;-61
2021/05/23 07:24:53;;;;;;;13.05;5.03;;;13.90;99.90;;;;;;5060973;28;20101;-62
2021/05/23 07:27:21;;;;;;;10.55;4.15;;;14.10;99.90;;;;;;5066560;28;20407;-62
2021/05/23 07:29:48;;;;;;;8.45;4.65;;;14.20;99.90;;;;;;5049023;28;20048;-62
2021/05/23 07:32:15;;;;;;;8.15;4.68;;;14.20;99.90;;;;;;5064518;28;20585;-61
2021/05/23 07:34:42;;;;;;;7.82;4.72;;;14.20;99.90;;;;;;5060400;28;20052;-61
2021/05/23 07:37:09;;;;;;;8.25;4.35;;;14.20;99.90;;;;;;5068299;28;20029;-61
2021/05/23 07:39:36;;;;;;;10.27;4.25;;;14.30;99.90;;;;;;5070203;28;20036;-62
2021/05/23 07:42:03;;;;;;;6.25;3.47;;;14.20;99.90;;;;;;5066319;28;20634;-61
2021/05/23 07:44:30;;;;;;;7.93;4.07;;;14.30;99.90;;;;;;5060149;28;20041;-61
2021/05/23 07:46:57;;;;;;;7.25;4.00;;;14.30;99.90;;;;;;5064951;28;20040;-61
2021/05/23 07:49:24;;;;;;;9.88;4.95;;;14.30;99.90;;;;;;5058654;28;20040;-62
2021/05/23 07:51:51;;;;;;;9.50;4.57;;;14.40;99.90;;;;;;5060026;28;20047;-62
2021/05/23 07:54:18;;;;;;;8.70;4.22;;;14.50;99.90;;;;;;5065063;28;20052;-62
2021/05/23 07:56:49;;;;;;;9.77;4.43;;;14.50;99.90;;;;;;5062974;28;20116;-62
2021/05/23 07:59:16;;;;;;;6.97;3.67;;;14.50;99.90;;;;;;5065268;28;20049;-61
2021/05/23 08:01:43;;;;;;;8.38;4.22;;;14.50;99.90;;;;;;5062692;28;20090;-61
2021/05/23 08:04:10;;;;;;;7.68;3.95;;;14.50;99.90;;;;;;5059034;28;20040;-64
2021/05/23 08:06:38;;;;;;;7.93;4.30;;;14.50;99.90;;;;;;5063974;28;20116;-63
2021/05/23 08:09:05;;;;;;;7.57;4.38;;;14.50;99.90;;;;;;5057092;28;20537;-64
2021/05/23 08:11:32;;;;;;;9.40;3.88;;;14.50;99.90;;;;;;5044066;28;20044;-63
2021/05/23 08:14:00;;;;;;;7.40;3.58;;;14.60;99.90;;;;;;5055096;28;20069;-63
2021/05/23 08:16:27;;;;;;;6.00;3.67;;;14.60;99.90;;;;;;5061206;28;20043;-63
2021/05/23 08:18:55;;;;;;;7.63;3.78;;;14.50;99.90;;;;;;5063723;28;20033;-63
2021/05/23 08:21:22;;;;;;;8.50;3.80;;;14.50;99.90;;;;;;5056396;28;20037;-63
2021/05/23 08:23:49;;;;;;;5.50;2.90;;;14.40;99.90;;;;;;5066415;28;20484;-63
2021/05/23 08:26:16;;;;;;;9.23;4.65;;;14.50;99.90;;;;;;5062089;28;20036;-63
2021/05/23 08:28:43;;;;;;;7.10;3.70;;;14.50;99.90;;;;;;5071397;28;20079;-63
2021/05/23 08:31:10;;;;;;;6.60;3.63;;;14.50;99.90;;;;;;5067838;28;20041;-63
2021/05/23 08:33:37;;;;;;;8.88;3.28;;;14.50;99.90;;;;;;5067652;28;20039;-63
2021/05/23 08:36:05;;;;;;;5.43;3.28;;;14.60;99.90;;;;;;5063235;28;20041;-63
2021/05/23 08:38:32;;;;;;;6.90;3.58;;;14.60;99.90;;;;;;5061552;28;20099;-64
2021/05/23 08:41:00;;;;;;;6.18;3.72;;;14.80;99.90;;;;;;5061516;28;20057;-63
2021/05/23 08:43:28;;;;;;;7.28;3.47;;;14.90;99.90;;;;;;5065401;28;20048;-63
2021/05/23 08:45:58;;;;;;;6.03;2.80;;;14.90;99.90;;;;;;5052187;28;20043;-63
2021/05/23 08:48:26;;;;;;;5.00;2.47;;;14.90;99.90;;;;;;5080213;28;20504;-63
2021/05/23 08:50:54;;;;;;;6.65;2.75;;;15.00;99.90;;;;;;5065654;28;20408;-63
2021/05/23 08:53:21;;;;;;;6.78;3.25;;;15.10;99.90;;;;;;5065105;28;20040;-63
2021/05/23 08:55:49;;;;;;;5.07;3.05;;;15.10;99.90;;;;;;5066491;28;20071;-63
2021/05/23 08:58:17;;;;;;;7.13;2.75;;;15.10;99.90;;;;;;5065911;28;20079;-63
2021/05/23 09:00:45;;;;;;;5.57;2.25;;;15.20;99.90;;;;;;5071038;28;20044;-64
2021/05/23 09:03:18;;;;;;;5.38;2.03;;;15.30;99.90;;;;;;5046399;28;20047;-67
2021/05/23 09:05:50;;;;;;;4.10;2.58;;;15.40;99.90;;;;;;5059836;28;20373;-66
2021/05/23 09:08:21;;;;;;;3.72;1.95;;;15.40;99.90;;;;;;5058536;28;20048;-66
2021/05/23 09:10:51;;;;;;;5.60;2.20;;;15.40;99.90;;;;;;5058257;28;20033;-66
2021/05/23 09:13:36;;;;;;;4.97;2.20;;;15.40;99.90;;;;;;5075487;28;20052;-65
2021/05/23 09:16:04;;;;;;;4.70;1.80;;;15.40;99.90;;;;;;5061032;28;20040;-70
2021/05/23 09:18:58;;;;;;;3.72;1.48;;;15.40;99.90;;;;;;5060285;28;20048;-70
2021/05/23 09:21:30;;;;;;;5.18;1.67;;;15.40;99.90;;;;;;5055218;28;20518;-69
2021/05/23 09:24:03;;;;;;;4.50;2.50;;;15.50;99.90;;;;;;5060741;28;20095;-70
2021/05/23 09:26:33;;;;;;;4.07;1.55;;;15.50;99.90;;;;;;5068822;28;20044;-70
2021/05/23 09:29:09;;;;;;;4.13;1.73;;;15.50;99.90;;;;;;5064971;28;20036;-69
2021/05/23 09:31:37;;;;;;;3.88;1.50;;;15.60;99.90;;;;;;5078719;28;20165;-66
2021/05/23 09:34:06;;;;;;;3.78;1.58;;;15.60;99.90;;;;;;5071070;28;20055;-63
2021/05/23 09:36:46;;;;;;;4.03;1.95;;;15.60;99.90;;;;;;5063295;28;20099;-63
2021/05/23 09:39:14;;;;;;;3.25;1.63;;;15.60;99.90;;;;;;5063633;28;20048;-69
2021/05/23 09:41:42;;;;;;;3.15;1.55;;;15.60;99.90;;;;;;5057788;28;20056;-64
2021/05/23 09:44:16;;;;;;;2.53;1.38;;;15.60;99.90;;;;;;5055824;28;20422;-63
2021/05/23 09:47:01;;;;;;;4.03;1.60;;;15.60;99.90;;;;;;5072837;28;20098;-64
2021/05/23 09:49:40;;;;;;;6.18;1.77;;;15.60;99.90;;;;;;5051278;28;20514;-64
2021/05/23 09:52:10;;;;;;;5.95;1.73;;;15.60;99.90;;;;;;5053212;28;20037;-64
2021/05/23 09:54:50;;;;;;;4.15;2.13;;;15.70;99.90;;;;;;5059704;28;20118;-64
2021/05/23 09:57:19;;;;;;;6.85;2.70;;;15.70;99.90;;;;;;5057140;28;20477;-64
2021/05/23 09:59:57;;;;;;;6.75;2.88;;;15.70;99.90;;;;;;5064161;28;20083;-63
2021/05/23 10:02:24;;;;;;;6.80;3.08;;;15.80;99.90;;;;;;5067443;28;20048;-63
2021/05/23 10:05:12;;;;;;;6.72;3.22;;;15.80;99.90;;;;;;5058246;28;20414;-63
2021/05/23 10:07:39;;;;;;;7.85;3.65;;;15.70;99.90;;;;;;5059942;28;20041;-64
2021/05/23 10:10:08;;;;;;;7.30;3.45;;;15.70;99.90;;;;;;5063818;28;20123;-64
2021/05/23 10:12:36;;;;;;;5.95;3.28;;;15.70;99.90;;;;;;5063189;28;20037;-64
2021/05/23 10:15:10;;;;;;;4.28;2.25;;;15.70;99.90;;;;;;5061458;28;20041;-64
2021/05/23 10:17:56;;;;;;;5.53;2.90;;;15.70;99.90;;;;;;5062392;28;20045;-64
2021/05/23 10:20:26;;;;;;;5.65;3.00;;;15.60;99.90;;;;;;5064369;28;20036;-64
2021/05/23 10:22:56;;;;;;;7.53;3.50;;;15.50;99.90;;;;;;5063410;28;20046;-64
2021/05/23 10:25:24;;;;;;;11.82;3.60;;;15.50;99.90;;;;;;5058551;28;20115;-65
2021/05/23 10:27:53;;;;;;;9.60;4.53;;;15.50;99.90;;;;;;5066020;28;20059;-65
2021/05/23 10:30:21;;;;;;;6.43;3.45;;;15.50;99.90;;;;;;5059520;28;20041;-66
2021/05/23 10:32:48;;;;;;;7.40;3.15;;;15.40;99.90;;;;;;5058697;28;20396;-67
2021/05/23 10:38:31;;;;;;;7.00;4.40;;;15.40;99.90;;;;;;5388082;23;20108;-63
2021/05/23 10:41:04;;;;;;;7.55;4.05;;;15.40;99.90;;;;;;4887159;29;20451;-65
2021/05/23 10:43:34;;;;;;;10.05;3.80;;;15.50;99.90;;;;;;4886672;29;20049;-65
2021/05/23 10:46:03;;;;;;;9.43;3.53;;;15.50;99.90;;;;;;4885668;29;20044;-65
2021/05/23 10:48:31;;;;;;;5.65;3.03;;;15.50;99.90;;;;;;4887925;29;20108;-65
2021/05/23 10:50:58;;;;;;;6.45;2.83;;;15.50;99.90;;;;;;4887897;29;20044;-66
2021/05/23 10:53:33;;;;;;;5.40;2.20;;;15.50;99.90;;;;;;4887687;29;20471;-65
2021/05/23 10:56:00;;;;;;;4.50;1.95;;;15.50;99.90;;;;;;4885980;29;20060;-65
2021/05/23 10:58:29;;;;;;;5.30;2.00;;;15.50;99.90;;;;;;4889953;29;20037;-65
2021/05/23 11:00:58;;;;;;;4.90;2.00;;;15.40;99.90;;;;;;4881600;29;20120;-66
2021/05/23 11:03:26;;;;;;;4.10;1.40;;;15.50;99.90;;;;;;4886747;29;20056;-66
2021/05/23 11:06:05;;;;;;;3.63;1.17;;;15.40;99.90;;;;;;4884677;29;20053;-65
2021/05/23 11:08:35;;;;;;;3.05;1.73;;;15.40;99.90;;;;;;4894089;29;20033;-65
2021/05/23 11:11:03;;;;;;;2.55;1.42;;;15.40;99.90;;;;;;4900049;29;20108;-65
2021/05/23 11:13:34;;;;;;;3.70;1.73;;;15.40;99.90;;;;;;4883938;29;20052;-65
2021/05/23 11:16:17;;;;;;;3.95;1.95;;;15.40;99.90;;;;;;4887477;29;20873;-65
2021/05/23 11:18:46;;;;;;;3.60;2.00;;;15.40;99.90;;;;;;4886400;29;20044;-63
2021/05/23 11:21:16;;;;;;;7.10;3.00;;;15.30;99.90;;;;;;4890508;29;20396;-63
2021/05/23 11:23:44;;;;;;;7.35;3.60;;;15.30;99.90;;;;;;4887727;29;20059;-63
2021/05/23 11:26:17;;;;;;;5.85;2.92;;;15.30;99.90;;;;;;4889540;29;20048;-63
2021/05/23 11:28:49;;;;;;;6.32;2.90;;;15.30;99.90;;;;;;4889393;29;20040;-64
2021/05/23 11:31:25;;;;;;;4.40;2.33;;;15.20;99.90;;;;;;4889136;29;20040;-63
2021/05/23 11:33:52;;;;;;;5.15;2.72;;;15.30;99.90;;;;;;4889236;29;20071;-63
2021/05/23 11:36:28;;;;;;;4.82;3.10;;;15.20;99.90;;;;;;4888660;29;20104;-63
2021/05/23 11:38:57;;;;;;;4.32;3.00;;;15.30;99.90;;;;;;4887115;29;20427;-62
2021/05/23 11:41:33;;;;;;;5.55;2.53;;;15.20;99.90;;;;;;4890437;29;20707;-63
2021/05/23 11:44:01;;;;;;;6.13;2.35;;;15.20;99.90;;;;;;4887474;29;20135;-63
2021/05/23 11:46:29;;;;;;;7.57;2.60;;;15.20;99.90;;;;;;4887803;29;20088;-63
2021/05/23 11:48:57;;;;;;;6.07;2.60;;;15.20;99.90;;;;;;4896089;29;20053;-63
2021/05/23 11:51:29;;;;;;;4.07;2.25;;;15.10;99.90;;;;;;4876047;29;20044;-63
2021/05/23 11:54:01;;;;;;;4.47;2.53;;;15.10;99.90;;;;;;4886904;29;20460;-63
2021/05/23 11:56:30;;;;;;;3.72;2.10;;;15.10;99.90;;;;;;4874524;29;20128;-63
2021/05/23 11:59:00;;;;;;;5.70;2.13;;;15.10;99.90;;;;;;4876985;29;20155;-63
2021/05/23 12:01:32;;;;;;;4.18;2.20;;;15.10;99.90;;;;;;4886438;29;20045;-63
2021/05/23 12:04:02;;;;;;;6.97;3.17;;;15.10;99.90;;;;;;4889716;29;20056;-63
2021/05/23 12:06:30;;;;;;;5.50;3.20;;;15.20;99.90;;;;;;4886353;29;20072;-63
2021/05/23 12:09:13;;;;;;;7.07;3.03;;;15.10;99.90;;;;;;4888052;29;20081;-63
2021/05/23 12:11:50;;;;;;;5.57;2.65;;;15.10;99.90;;;;;;4894467;29;20764;-63
2021/05/23 12:14:39;;;;;;;11.85;5.78;;;15.10;99.90;;;;;;4888864;29;20037;-63
2021/05/23 12:17:07;;;;;;;11.30;6.00;;;15.10;99.90;;;;;;4902350;29;20053;-64
2021/05/23 12:19:50;;;;;;;6.40;4.25;;;15.10;99.90;;;;;;4889498;29;20072;-63
2021/05/23 12:22:22;;;;;;;7.75;3.50;;;15.10;99.90;;;;;;4883530;29;20158;-63
2021/05/23 12:25:11;;;;;;;6.93;3.15;;;15.10;99.90;;;;;;4892285;29;20068;-63
2021/05/23 12:27:41;;;;;;;5.63;2.60;;;15.10;99.90;;;;;;4885691;29;20041;-63
2021/05/23 12:30:09;;;;;;;4.38;2.40;;;15.10;99.90;;;;;;4871063;29;20059;-63
2021/05/23 12:33:05;;;;;;;3.83;1.60;;;15.10;99.90;;;;;;4878358;29;20080;-63
2021/05/23 12:35:34;;;;;;;7.65;5.93;;;15.00;99.90;;;;;;4896798;29;20053;-63
2021/05/23 12:38:09;;;;;;;5.75;2.63;;;15.00;99.90;;;;;;4890106;29;21168;-63
2021/05/23 12:40:45;;;;;;;4.30;2.10;;;15.00;99.90;;;;;;4889477;29;20048;-63
2021/05/23 12:43:16;;;;;;;5.03;1.75;;;15.00;99.90;;;;;;4884709;29;20053;-63
2021/05/23 12:45:50;;;;;;;3.95;1.92;;;15.00;99.90;;;;;;4887599;29;20079;-63
2021/05/23 12:48:19;;;;;;;6.95;2.67;;;15.00;99.90;;;;;;4890349;29;20033;-64
2021/05/23 12:50:49;;;;;;;4.47;2.80;;;14.90;99.90;;;;;;4884252;29;20041;-63
2021/05/23 12:53:28;;;;;;;3.60;2.17;;;14.90;99.90;;;;;;4891148;29;20057;-63
2021/05/23 12:56:06;;;;;;;2.83;1.88;;;14.90;99.90;;;;;;4885949;29;20123;-63
2021/05/23 12:58:47;;;;;;;4.32;1.75;;;14.80;99.90;;;;;;4890952;29;20056;-63
2021/05/23 13:01:21;;;;;;;2.60;1.48;;;14.70;99.90;;;;;;4901356;29;20048;-63